KCHD

Chandler Municipal Airport

Chandler, Arizona, USA
METAR KCHD 201547Z 16004KT 10SM FEW200 34/16 A2992
Observed Flight Rules
Aug-20 @ 15:47 UTC (38 minutes ago) Visual Flight Rules
Wind Visibility Clouds
160° at 4 knots 10 miles
  • Few at 20,000' AGL
Temperatures Readings
Current 34°C / 93°F
Dewpoint 16°C / 61°F
Humidity 34%
Altimeter 29.92" Hg
Pressure 1013 hPa
Elevation 379
METAR KCHD 201547Z 16004KT 10SM FEW200 34/16 A2992
Observed Flight Rules
Aug-20 @ 15:47 UTC
(38 minutes ago)
VFR
Wind Visibility
160° at 4 knots 10 miles
Clouds
  • Few at 20,000' AGL
Temperature Dewpoint
34°C / 93°F 16°C / 61°F
Humidity Altimeter Pressure
34% 29.92" Hg 1013 hPa